[сексшоп]     [распродажа -50%]     [форум]     [сексопатолог]     [доставка]     [оплата]     [оптовым покупателям]     [контакты]     [помощь]  

  • Секс шоп
  • Рейтинг товаров
  • Инструкции к товарам
  • Поиск по товарам
  • Форум/доска сообщений
  • Библиотека статей
  • Секс-энциклопедия
  • Консультации врачей
  • Онлайн поддержка
  • Контакты
  • Справочная
  • Только что,
    кто-то заказал
    эти игрушки
    у нас в
    магазине -
    Только что продано Масло-лубрикант Intim Silicon - 75 мл. от компании Биоритм за 669.00 рублейТолько что продано Анальный увлажняющий гель-лубрикант Intim Anal - 60 гр. от компании Биоритм за 331.00 рублейТолько что продано Игральные карты - Камасутра от компании Сима-Ленд за 182.00 рублейТолько что продано Виброяйцо с нежными волнистыми ребрышками Jacqueline на пульте ДУ от компании Baile за 3327.00 рублей

    Разное

    Темы  Автор Дата  Сообщения  Просмотров 
    К списку форумов > Разное [ новая тема ]
    Парень ищет девушку или парня (самара) МелМан 2019-05-07 20:13:45 0 42
    Госпоже нужен раб! olgamusic 2019-03-09 21:25:10 21 4732
    Ищу вирт-общение Китти 2019-02-12 00:42:48 2 764
    Без тормозов 205628 2019-02-07 12:31:05 0 87
    без темы Сумерки 2019-02-07 12:25:50 19 3708
    Анальный Вагинальный Груповой Секс Фистинг . брутальный 2018-11-25 18:18:21 0 8434
    СТРАПОН БЕЛГОРОД alex69 2018-11-05 13:16:20 0 106
    БИ СЕКС БЕЛГОРОД alex69 2018-11-05 13:14:33 0 107
    Замужняя ищу мужчину лизуна 183291 2018-09-14 23:07:34 7 2723
    Хочу двух мужчин би. murmurzik 2018-01-29 13:15:56 8 3231
    Любящая Пара из Москвы Pashka75 2018-01-22 12:52:35 0 193
    приглашаю всех посетить свингер клуб rin1477 2017-11-26 03:04:59 2 1083
    Девушки из Челябинска есть? xxx74 2017-05-13 02:19:08 0 179
    Фото жены на заказ selenos 2017-01-02 12:58:17 2 1091
    ищу девушку для куни 2017-01-02 06:22:33 0 291
    Москва Borkabb 2016-08-08 10:33:02 0 267
    молоденький неопытный ищу пару ЖЖ из Питера для всего 179293 2015-09-23 15:17:01 0 302
    Ищу весёлую и темпераментную девушку. 182056 2015-08-21 22:37:25 0 265
    Красноярск. Парень именно для вас Spk 2015-07-08 00:20:09 0 274
    Ищу раба 179319 2015-04-13 00:46:34 0 441
    ищу женщину для страпона в Питере! strap!!! 2015-03-30 17:52:29 0 291
    Хозяин ищет виртуальную нижнюю/рабыню 177868 2015-01-17 11:45:50 0 347
    пара ищет пару 177618 2015-01-01 21:37:41 0 344
    Пара хочет попробовать! oootop 2014-03-03 14:06:08 9 6839
    ищу страпонесу Омск tab21 2014-01-12 12:51:02 0 624
    есть тут раскрепощённые девушки и женщины из Сургута? lovekyni 2013-11-12 15:57:03 0 415
    Кунилингус в Оренбурге Igorek92 2013-09-29 02:55:28 1 1010
    Порка в Санкт-Петербурге. Нателла 2013-09-02 14:52:06 1 3304
    общение в сети на темы: женское доминирование .переодевание.страпон и прочее nikolai33 2013-08-16 04:59:25 1 823
    кунилингус москва и область максимус 2013-05-22 16:31:20 1 651
    ищу страпонессу 149770 2013-01-31 17:18:27 0 662
    хочу попробовать страпон.пишите я из ХАрькова 149770 2013-01-31 02:34:07 0 665
    извращения.Харьков 149770 2013-01-30 21:31:14 0 709
    Ищу страпонессу strap on it to me 2013-01-30 20:00:31 2 759
    Ищу вирт рабыню (или начинающую ученицу) kingson 2013-01-18 17:41:35 0 597
    Сургут ищу женщину surgut-912 2012-11-16 23:26:41 0 548
    ищу трансика vadimka777 2012-10-03 16:28:21 0 767
    Я и двое мужчин Сумерки 2012-09-18 00:44:23 13 4362
    Женщины я вас хочу!!! spasand 2012-06-28 13:29:43 0 543
    Ищу рабыню. Мне 38. Москва и Подмосковье. spasand 2012-06-27 13:15:09 0 608
    Госпожа в поиске виртуальной рабыни\раба Raspberries 2012-05-31 18:30:38 1 1725
    минет..анал...экстрим mr-84@bk.ru 2012-04-02 14:44:22 0 893
    минет..анал...экстрим mr-84@bk.ru 2012-04-02 14:44:12 0 638
    А есть ли такие девушки, женщины... хехх 2012-04-02 14:28:09 3 2498
    Воронеж! 115597 2011-12-04 13:01:30 2 693
    Кунилингус Сургут. surgut-912 2011-11-06 02:52:39 0 756
    отлижу в Хабаровске 63929 2011-11-05 18:51:42 0 625
    BDSM - поиск...только ХАБАРОВСК РабХабаровск 2011-05-15 15:33:43 1 1005
    ищу РАБЫНЮ OVERLORD 2011-04-22 07:22:19 0 736
    Девственник 20 лет с Мурманской обл 30894 2011-01-25 00:08:26 0 691
    москвич в активном поиске Lexi1978xixi 2010-11-25 14:43:07 1 802
    Страпон в Иваново Sladkij27 2010-08-05 13:30:56 0 1293
    ищу девушку для страппон секса Иркуск 2010-06-19 12:07:09 0 1214
    2 парня из СПб ищут... bimulyk 2010-05-25 18:02:59 1 1535
    хочу повиртовать по скайпу есть вебка у кого? magmp 2010-04-10 10:17:28 1 1414
    Начинающая лисбиянка из Москвы ищет опытную девушкудевушку Ксения 2010-03-02 02:58:21 3 3663
    Госпожа раб olgamusic 2010-01-22 19:15:43 15 3796
    Нужна Беременная 18662 2009-10-22 14:32:30 1 1212
    Москвич познакомиться с Госпожой. mobi 2009-10-18 10:23:44 0 1080
    госпожа и29 2009-09-28 08:20:11 1 1586
    Ищу девушку с Иркутска smoke333 2009-09-11 23:33:17 0 1232
    ИЩУ ЖЕНЩИНУ ДЛЯ ИГР arman_vea 2009-08-15 08:17:11 0 1355
    ПОЛИЖУ AH 2009-08-12 18:17:56 4 1691
    Куннилингус для дам 17862 2009-08-10 01:38:36 0 1200
    Ищу транссексуалку из Ташкента ramon225 2009-07-18 08:11:46 1 2322
    Господин ищет рабыню или сабу GEKTOR 2009-05-08 23:04:05 1 1450
    Ищу госпожу или пару м+ж в ставрополе bionorica 2009-03-27 00:57:43 1 1614
    раб ищет хозяйку (-ина) azsxdcfv 2009-03-17 15:00:28 0 1382
    Секс с военным Ianys 2009-01-30 00:22:26 2 1614
    Секс с военным Ianys 2009-01-27 05:46:26 0 1381
    Секс с военным Ianys 2009-01-26 23:56:04 0 1336
    Секс с военным Ianys 2009-01-26 23:54:03 0 1361
    хочу девушку............. Mary669 2008-12-06 16:15:33 2 1590
    без темы Afilatus 2008-11-16 17:02:13 0 1463
    Попа ищет приключений! Balamyt 2008-11-15 07:11:47 1 1645
    ищу любителей полиэтилена JerryJerry 2008-10-29 01:44:38 0 1768
    Давайте снимим порно sergnik 2008-07-10 21:55:42 1 3245
    Пара М+Ж ей 20,ему 40 ищет сексуальную девушку. Mary669 2008-07-04 19:34:33 1 1524
    Я смущена Сумерки 2008-01-03 01:58:22 8 4474
    разработаю попку в Питере pipka 2007-12-28 18:08:49 1 2149
    Девушка ищет друга (гомосексуалиста), цель: дружба Moone 2007-11-13 15:10:49 5 3470
    страпонессу в москве! max777 2007-07-31 17:44:46 4 2442
    Ищу мужчину и женщину Crokov 2007-06-21 20:08:20 10 2382
    Ищу мужчину для страпона из Челябинска Straponessa 2007-05-03 13:05:36 4 3981
    шлюха для госпожи frey 2006-12-12 15:32:23 1 2176
    Ищу вирт Госпожу Slave36 2006-11-06 23:38:18 0 1835
    женственный трансвестит познакомиться ira-tsv 2006-11-01 10:51:20 4 3207
    кто из ульяновска откликнитесь! ul_73 2006-10-25 14:17:13 1 1871
    Молодому мужчине требуется развратная садистка Joni 2006-10-22 05:28:31 0 2961
    мужчина из Челябинска ищет девушку для страпона pupkin 2006-10-22 05:27:20 0 2086
    Женское доминирование Bob13 2006-10-22 05:26:44 2 4227
    Ролевые игры nikalexei 2006-10-22 05:26:17 0 2506
    Московская саба ищет Господина Natal 2006-10-20 18:00:54 3 3370
    Применение игрушек в семейной жизни zz 2006-10-16 02:06:41 2 6600
    фистинг женщинам 5169 2006-10-16 02:06:33 1 3637
    Virtual SeX snowair 2006-09-12 13:03:35 4 2614
    молоденький парень ищет опытную женщину Hochu_sex 2006-04-26 20:06:48 0 2118
    Фотосьёмка(в Москве) - SINGLE Nude & Erotic - для привлекательных женщин и девушек(от 18-ти) bread 2006-01-11 16:33:55 1 2457
    Девственность SLD 2005-12-16 20:00:34 5 2954
    свяжи меня snark 2004-07-10 21:27:28 0 2943
    [ новая тема ]

    = Горячая тема: более 15 сообщений.

    Логин:
    Пароль:
  • Регистрация нового покупателя
  • Восстановить забытый пароль

  • Подписка на новости

  • Все производители

    Вакуумно-волновой стимулятор Satisfyer Luxury Prêt-à-porter с вибрацией
    Товар 103119
    7983.00 (11404.00) РУБ
    подробнее
    Вакуумно-волновой стимулятор Satisfyer Luxury Prêt-à-porter с вибрацией

    Женские духи с феромонами Sexy Life № 6 - 10 мл.
    Товар 104749
    361.00 (554.00) РУБ
    подробнее
    Женские духи с феромонами Sexy Life № 6 - 10 мл.

    [ все новинки... ]

      любовь
     любовь
     Парень ищет девушку или парня (самара)
     ищу парня с толстым членом
     Ищу парня для Вирта. Моя аська 745214196
     Вирт онлайне

    [ все темы форума ]

  • Как оплатить
  • Способы доставки
  • Анонимность покупки
  • Вопросы и ответы
  • Задать вопрос
  • Справочная

  • Посмотрите на новый сайт StripMag.ru >>
    ПОЗВОЛЬТЕ НАМ ПОЗАБОТИТЬСЯ О ВАШЕМ УДОВОЛЬСТВИИ!
    StripMag.ru - интернет-магазин интимных товаров. Условия использования сайта.
    WWW - http://stripmag.ru/ Телефон: +7 (495) 662-48-92, +7 (800) 555-15-07

    Рейтинг@Mail.ru